tititudorancea.com
Station Historical Data
Daily Summary for April 13, 2018 Units:  Metric    English   Both
« Previous Day
Next Day »
Daily Weekly Monthly Yearly Custom
  High: Low: Average:
Temperature: -17.8 °C 7.7 °C 14.6 °C
Dew Point: -17.8 °C 5.6 °C 8.6 °C
Humidity: Humidity % 37 % 71 %
Wind Speed: 0 km/h 0 km/h 11.9 km/h
Wind Gust: 0 km/h - -
Wind:- - WNW
Pressure: 0 hPa 998.9 hPa -
Precipitation: 2.29 mm    
Historical Graphs
 
 
Ararat weather Find more about Weather in Ararat, AU


 



 


Tabular Data for April 13, 2018
Time Temperature Dew Point Pressure Wind Wind Speed Wind Gust Humidity Rainfall Rate (Hourly)
-17.8 °C -17.8 °C 0 hPa Calm     Humidity % 0 mm
00:06 10.7 °C 9 °C 1009 hPa SSE 0.6 km/h 1.9 km/h 89 % 0 mm
00:09 10.7 °C 8.9 °C 1009 hPa Calm     89 % 0 mm
00:14 10.5 °C 8.8 °C 1009 hPa Calm     89 % 0 mm
00:16 10.5 °C 8.8 °C 1009 hPa Calm     89 % 0 mm
00:21 10.3 °C 8.6 °C 1009 hPa Calm     89 % 0 mm
00:26 10.3 °C 8.8 °C 1009 hPa Calm     90 % 0 mm
00:27 10.3 °C 8.7 °C 1009 hPa Calm     90 % 0 mm
00:29 10.3 °C 8.8 °C 1009 hPa Calm     90 % 0 mm
00:34 10.3 °C 8.8 °C 1009 hPa Calm     90 % 0 mm
00:38 10.3 °C 8.7 °C 1009 hPa Calm     90 % 0 mm
00:43 10.2 °C 8.7 °C 1009 hPa Calm     90 % 0 mm
00:48 10.2 °C 8.8 °C 1009 hPa Calm     91 % 0 mm
00:53 10.2 °C 8.8 °C 1008.7 hPa Calm     91 % 0 mm
00:55 10.2 °C 8.8 °C 1009 hPa Calm     91 % 0 mm
01:00 10.1 °C 8.7 °C 1008.7 hPa Calm     91 % 0 mm
01:05 10.1 °C 8.7 °C 1008.7 hPa Calm     91 % 0 mm
01:09 9.9 °C 8.4 °C 1008.7 hPa Calm     90 % 0 mm
01:11 9.8 °C 8.3 °C 1008.7 hPa Calm     90 % 0 mm
01:16 9.8 °C 8.4 °C 1008.7 hPa Calm     91 % 0 mm
01:21 9.7 °C 8.1 °C 1008.7 hPa Calm     90 % 0 mm
01:24 9.7 °C 8.3 °C 1008.7 hPa Calm     91 % 0 mm
01:29 9.6 °C 8.2 °C 1008.7 hPa Calm     91 % 0 mm
01:32 9.5 °C 8.1 °C 1008.7 hPa Calm     91 % 0 mm
01:37 9.3 °C 7.9 °C 1008.7 hPa Calm     91 % 0 mm
01:42 9.3 °C 7.9 °C 1008.7 hPa Calm     91 % 0 mm
01:47 9.2 °C 7.8 °C 1008.4 hPa Calm     91 % 0 mm
01:48 9.1 °C 7.7 °C 1008.4 hPa Calm     91 % 0 mm
01:50 9.1 °C 7.7 °C 1008.4 hPa Calm     91 % 0 mm
01:55 8.9 °C 7.6 °C 1008.4 hPa Calm     91 % 0 mm
02:00 8.8 °C 7.4 °C 1008.4 hPa Calm     91 % 0 mm
02:05 8.7 °C 7.3 °C 1008.4 hPa Calm     91 % 0 mm
02:06 8.7 °C 7.3 °C 1008.4 hPa Calm     91 % 0 mm
02:11 8.5 °C 7.1 °C 1008.4 hPa Calm     91 % 0 mm
02:16 8.4 °C 7.1 °C 1008.4 hPa Calm     91 % 0 mm
02:17 8.4 °C 7 °C 1008.4 hPa Calm     91 % 0 mm
02:22 8.5 °C 7.3 °C 1008.4 hPa Calm     92 % 0 mm
02:27 8.6 °C 7.3 °C 1008.4 hPa Calm     92 % 0 mm
02:32 8.5 °C 7.3 °C 1008.4 hPa Calm     92 % 0 mm
02:37 8.4 °C 7.2 °C 1008.4 hPa Calm     92 % 0 mm
02:42 8.4 °C 7.2 °C 1008 hPa Calm     92 % 0 mm
02:45 8.4 °C 7.2 °C 1008 hPa Calm     92 % 0 mm
02:50 8.3 °C 7.1 °C 1008 hPa Calm     92 % 0 mm
02:55 8.3 °C 7.1 °C 1008 hPa Calm     92 % 0 mm
02:59 8.3 °C 7.1 °C 1008 hPa Calm     92 % 0 mm
03:04 8.3 °C 7.1 °C 1008 hPa Calm     92 % 0 mm
03:09 8.3 °C 7.1 °C 1008 hPa Calm     92 % 0 mm
03:17 8.2 °C 6.9 °C 1008 hPa Calm     92 % 0 mm
03:22 8.1 °C 6.8 °C 1008 hPa Calm     92 % 0 mm
03:27 7.9 °C 6.7 °C 1007.7 hPa Calm     92 % 0 mm
03:32 7.9 °C 6.7 °C 1008 hPa Calm     92 % 0 mm
03:37 7.9 °C 6.7 °C 1008 hPa Calm     92 % 0 mm
03:42 7.8 °C 6.6 °C 1007.7 hPa Calm     92 % 0 mm
03:46 7.8 °C 6.6 °C 1007.7 hPa Calm     92 % 0 mm
03:51 7.7 °C 6.7 °C 1007.7 hPa Calm     93 % 0 mm
03:56 7.7 °C 6.7 °C 1007.7 hPa Calm     93 % 0 mm
04:01 7.7 °C 6.7 °C 1007.7 hPa Calm     93 % 0 mm
04:05 7.9 °C 6.8 °C 1008 hPa North 0.3 km/h 1.9 km/h 93 % 0 mm
04:10 8.3 °C 7.6 °C 1007.7 hPa Calm     95 % 0 mm
04:15 8.7 °C 7.9 °C 1007.7 hPa North 2.7 km/h 5.6 km/h 95 % 0 mm
04:20 8.9 °C 8.1 °C 1007.7 hPa SSE 4.7 km/h 5.6 km/h 94 % 0 mm
04:25 9.3 °C 8.4 °C 1007.7 hPa South 6.4 km/h 8 km/h 94 % 0 mm
04:26 9.3 °C 8.4 °C 1007.7 hPa North 5.6 km/h 7.4 km/h 94 % 0 mm
04:31 9.4 °C 8.5 °C 1007.7 hPa South 3.1 km/h 5.6 km/h 94 % 0 mm
04:39 9.6 °C 8.7 °C 1007.7 hPa SSE 2.1 km/h 3.7 km/h 94 % 0 mm
04:44 9.7 °C 8.6 °C 1008 hPa North 2.3 km/h 3.7 km/h 93 % 0 mm
04:49 9.7 °C 8.8 °C 1008 hPa North 1.6 km/h 3.7 km/h 94 % 0 mm
04:51 9.7 °C 8.8 °C 1008 hPa North 0.2 km/h 3.7 km/h 94 % 0 mm
04:55 9.8 °C 8.8 °C 1008 hPa North 5 km/h 9.3 km/h 94 % 0 mm
05:00 9.9 °C 9 °C 1008 hPa North 5 km/h 9.7 km/h 94 % 0 mm
05:05 10.1 °C 9.1 °C 1008 hPa SSE 5.1 km/h 7.4 km/h 94 % 0 mm
05:06 10.1 °C 9.1 °C 1008 hPa SSE 5.8 km/h 7.4 km/h 94 % 0 mm
05:11 10.1 °C 9 °C 1008 hPa South 5.5 km/h 6.4 km/h 93 % 0 mm
05:31 10.1 °C 9.1 °C 1008 hPa SSE 5.8 km/h 9.7 km/h 93 % 0 mm
05:36 10.1 °C 9.1 °C 1008 hPa SSE 4.7 km/h 7.4 km/h 93 % 0 mm
05:41 10.2 °C 9.1 °C 1008 hPa SSE 5.5 km/h 9.3 km/h 93 % 0 mm
05:45 10.2 °C 9.1 °C 1008 hPa SSE 5.5 km/h 7.4 km/h 93 % 0 mm
05:50 10.3 °C 9.2 °C 1008 hPa North 4 km/h 7.4 km/h 93 % 0 mm
05:55 10.3 °C 9.3 °C 1008.4 hPa South 6.4 km/h 11.1 km/h 93 % 0 mm
05:59 10.3 °C 9.3 °C 1008.4 hPa South 6 km/h 9.3 km/h 93 % 0 mm
06:02 10.3 °C 9.3 °C 1008.4 hPa South 6 km/h 11.1 km/h 93 % 0 mm
06:07 10.3 °C 9.3 °C 1008.4 hPa SSE 5.8 km/h 11.1 km/h 93 % 0 mm
06:11 10.3 °C 9.3 °C 1008.4 hPa North 6.4 km/h 11.1 km/h 93 % 0 mm
06:16 10.3 °C 9.2 °C 1008.4 hPa North 7.4 km/h 9.3 km/h 93 % 0 mm
06:21 10.3 °C 9.2 °C 1008.4 hPa SSE 7.6 km/h 13 km/h 93 % 0 mm
06:26 10.3 °C 9.2 °C 1008.7 hPa SSE 5.6 km/h 7.4 km/h 93 % 0 mm
06:31 10.3 °C 9.3 °C 1008.7 hPa North 7.1 km/h 11.1 km/h 93 % 0 mm
06:33 10.4 °C 9.3 °C 1008.7 hPa SW 5.6 km/h 8 km/h 93 % 0 mm
06:38 10.4 °C 9.3 °C 1008.7 hPa North 8.4 km/h 11.1 km/h 93 % 0 mm
06:43 10.4 °C 9.3 °C 1008.7 hPa North 7.7 km/h 14.8 km/h 93 % 0 mm
06:48 10.4 °C 9.3 °C 1008.4 hPa North 7.2 km/h 9.3 km/h 93 % 0 mm
06:49 10.4 °C 9.3 °C 1008.4 hPa North 8.2 km/h 11.1 km/h 93 % 0 mm
06:54 10.3 °C 9.3 °C 1008.4 hPa North 5.1 km/h 9.3 km/h 93 % 0 mm
06:59 10.3 °C 9.2 °C 1008.4 hPa North 6.8 km/h 11.1 km/h 93 % 0 mm
07:04 10.2 °C 9.2 °C 1008.4 hPa North 5.1 km/h 9.3 km/h 93 % 0.25 mm
07:09 10.2 °C 9.2 °C 1008.4 hPa North 4.3 km/h 7.4 km/h 93 % 0.25 mm
07:11 10.2 °C 9.2 °C 1008.4 hPa WNW 6.1 km/h 7.4 km/h 93 % 0.25 mm
07:16 10.2 °C 9.2 °C 1008.4 hPa North 6.1 km/h 9.3 km/h 93 % 0.25 mm
07:21 10.2 °C 9.2 °C 1008.4 hPa WNW 5.1 km/h 7.4 km/h 93 % 0.25 mm
07:29 10.2 °C 9 °C 1008.4 hPa North 5.8 km/h 7.4 km/h 92 % 0.25 mm
07:34 10.3 °C 9.1 °C 1008.4 hPa NW 4.3 km/h 6.4 km/h 92 % 0.25 mm
07:39 10.4 °C 9.2 °C 1008.7 hPa North 3.1 km/h 5.6 km/h 92 % 0.25 mm
07:44 10.5 °C 9.3 °C 1008.4 hPa NW 4 km/h 7.4 km/h 92 % 0.25 mm
07:49 10.6 °C 9.5 °C 1008.4 hPa North 3.9 km/h 9.3 km/h 93 % 0.25 mm
07:54 10.7 °C 9.6 °C 1008.4 hPa NW 6.3 km/h 7.4 km/h 93 % 0.25 mm
07:57 10.8 °C 9.6 °C 1008.4 hPa NW 5 km/h 7.4 km/h 92 % 0.25 mm
08:01 10.9 °C 9.7 °C 1008.7 hPa NW 4.7 km/h 7.4 km/h 92 % 0.25 mm
08:06 11 °C 9.9 °C 1008.7 hPa West 4.5 km/h 5.6 km/h 93 % 0 mm
08:11 11.2 °C 10.1 °C 1008.7 hPa North 3.5 km/h 5.6 km/h 93 % 0 mm
08:16 11.4 °C 10.3 °C 1008.7 hPa West 3.4 km/h 8 km/h 93 % 0 mm
08:21 11.6 °C 10.4 °C 1008.7 hPa West 3.1 km/h 5.6 km/h 93 % 0 mm
08:24 11.7 °C 10.6 °C 1008.7 hPa West 3.9 km/h 7.4 km/h 93 % 0 mm
08:29 11.8 °C 10.7 °C 1008.7 hPa West 3.2 km/h 5.6 km/h 93 % 0 mm
08:34 11.8 °C 10.7 °C 1008.7 hPa West 4.3 km/h 5.6 km/h 93 % 0 mm
08:39 11.8 °C 10.7 °C 1008.4 hPa West 5.3 km/h 9.3 km/h 93 % 0 mm
08:44 11.9 °C 10.8 °C 1008.4 hPa North 5.6 km/h 5.6 km/h 93 % 0 mm
08:49 12.1 °C 11 °C 1008.4 hPa North 5.8 km/h 9.3 km/h 93 % 0 mm
08:51 12.2 °C 11.1 °C 1008.4 hPa West 2.3 km/h 5.6 km/h 93 % 0 mm
08:56 12.4 °C 11.3 °C 1008.4 hPa WNW 8.4 km/h 13 km/h 93 % 0 mm
09:01 12.4 °C 11.3 °C 1008.4 hPa North 6.3 km/h 7.4 km/h 93 % 0 mm
09:06 12.6 °C 11.5 °C 1008.4 hPa North 8.4 km/h 11.1 km/h 93 % 0 mm
09:11 12.7 °C 11.6 °C 1008.4 hPa North 7.2 km/h 13 km/h 93 % 0 mm
09:12 12.7 °C 11.6 °C 1008.4 hPa North 6.8 km/h 13 km/h 93 % 0 mm
09:17 12.8 °C 11.7 °C 1008.4 hPa North 6 km/h 13 km/h 93 % 0 mm
09:21 12.8 °C 11.7 °C 1008.4 hPa NNW 10 km/h 14.8 km/h 93 % 0 mm
09:27 12.7 °C 11.6 °C 1008.4 hPa NNW 14.2 km/h 14.8 km/h 93 % 0 mm
09:32 12.6 °C 11.4 °C 1008.4 hPa NNW 6.8 km/h 13 km/h 93 % 0 mm
09:34 12.5 °C 11.4 °C 1008.4 hPa North 6 km/h 13 km/h 93 % 0 mm
09:40 12.6 °C 11.5 °C 1008.4 hPa NNW 9 km/h 13 km/h 93 % 0 mm
09:45 12.7 °C 11.6 °C 1008 hPa North 12.2 km/h 22.2 km/h 93 % 0 mm
09:50 13.1 °C 12.1 °C 1008 hPa North 7.6 km/h 11.1 km/h 94 % 0 mm
09:55 13.5 °C 12.4 °C 1008 hPa North 11.6 km/h 18.5 km/h 93 % 0 mm
10:00 13.9 °C 12.4 °C 1007.7 hPa North 16.4 km/h 22.2 km/h 91 % 0 mm
10:05 14.4 °C 12.4 °C 1007.7 hPa NNW 15.1 km/h 20.4 km/h 88 % 0 mm
10:10 14.8 °C 12.4 °C 1007.7 hPa NNW 13.8 km/h 16.7 km/h 86 % 0 mm
10:15 15.2 °C 12.3 °C 1007.3 hPa NW 19.6 km/h 27.8 km/h 83 % 0 mm
10:20 15.6 °C 12.3 °C 1007.3 hPa North 13.4 km/h 18.5 km/h 81 % 0 mm
10:21 15.7 °C 12.2 °C 1007.3 hPa North 18 km/h 24.1 km/h 80 % 0 mm
10:26 16.2 °C 12.1 °C 1007.3 hPa North 13.5 km/h 27.8 km/h 77 % 0 mm
10:31 16.4 °C 11.7 °C 1007.3 hPa North 14.3 km/h 27.8 km/h 74 % 0 mm
10:36 16.7 °C 11.7 °C 1007.3 hPa NNE 10.3 km/h 18.5 km/h 72 % 0 mm
10:47 17.1 °C 11.9 °C 1007 hPa NW 7.1 km/h 9.3 km/h 72 % 0 mm
10:50 17.4 °C 11.8 °C 1007 hPa North 9.8 km/h 18.5 km/h 70 % 0 mm
10:55 17.7 °C 11.9 °C 1007 hPa NNW 11.7 km/h 18.5 km/h 69 % 0 mm
11:00 17.6 °C 11.2 °C 1007 hPa NNW 15.3 km/h 24.1 km/h 66 % 0 mm
11:05 17.2 °C 11.2 °C 1007 hPa North 10.9 km/h 18.5 km/h 68 % 0 mm
11:16 17.4 °C 11 °C 1006.7 hPa North 20.9 km/h 29.6 km/h 66 % 0 mm
11:18 17.6 °C 11.2 °C 1006.3 hPa North 19 km/h 31.5 km/h 66 % 0 mm
11:27 17.6 °C 10.5 °C 1006.7 hPa NW 11.6 km/h 13 km/h 63 % 0 mm
11:34 17.2 °C 10.1 °C 1006.3 hPa NW 11.4 km/h 18.5 km/h 63 % 0 mm
11:39 17.2 °C 10.1 °C 1006 hPa NW 16.7 km/h 22.5 km/h 63 % 0 mm
11:44 17.6 °C 10.2 °C 1006 hPa NNE 9 km/h 17.7 km/h 62 % 0 mm
11:49 17.8 °C 9.9 °C 1006 hPa NNW 15 km/h 25.9 km/h 60 % 0 mm
11:54 18.4 °C 10.2 °C 1005.6 hPa North 10.5 km/h 14.8 km/h 59 % 0 mm
11:59 18.4 °C 9.7 °C 1005.6 hPa NW 18 km/h 24.1 km/h 57 % 0 mm
12:02 18.2 °C 9.8 °C 1005.6 hPa NNW 12.9 km/h 20.4 km/h 58 % 0 mm
12:07 18.1 °C 9.4 °C 1005.6 hPa NNW 12.1 km/h 25.9 km/h 57 % 0 mm
12:12 18 °C 9.6 °C 1005.6 hPa NNW 16.9 km/h 27.8 km/h 58 % 0 mm
12:17 17.9 °C 9.6 °C 1005.3 hPa North 11.4 km/h 20.4 km/h 58 % 0 mm
12:22 18.3 °C 9.9 °C 1005.3 hPa North 10.1 km/h 18.5 km/h 58 % 0 mm
12:27 18.6 °C 9.6 °C 1005.3 hPa North 14.8 km/h 20.4 km/h 56 % 0 mm
12:32 18.2 °C 9.5 °C 1005.3 hPa NW 16.9 km/h 20.9 km/h 57 % 0 mm
12:35 18.2 °C 9.6 °C 1005 hPa NW 15 km/h 18.5 km/h 57 % 0 mm
12:40 18.2 °C 9.3 °C 1005 hPa NNW 11.7 km/h 14.8 km/h 56 % 0 mm
12:45 18.4 °C 9.5 °C 1004.6 hPa North 12.9 km/h 25.9 km/h 56 % 0 mm
12:49 18.7 °C 9.5 °C 1004.6 hPa North 18.2 km/h 24.1 km/h 55 % 0 mm
12:51 18.9 °C 9.7 °C 1004.6 hPa North 4.5 km/h 9.7 km/h 55 % 0 mm
12:56 19.1 °C 9.3 °C 1004.3 hPa North 16.6 km/h 29.6 km/h 53 % 0 mm
13:01 19.7 °C 9.3 °C 1004.3 hPa NNE 19.5 km/h 31.5 km/h 51 % 0 mm
13:06 19.9 °C 9.2 °C 1004.3 hPa NNW 17.5 km/h 27.8 km/h 50 % 0 mm
13:11 19.8 °C 8.8 °C 1003.9 hPa NNW 15.4 km/h 25.9 km/h 49 % 0 mm
13:16 20 °C 8.9 °C 1003.9 hPa North 15.9 km/h 29.6 km/h 49 % 0 mm
13:21 20.1 °C 8.7 °C 1003.6 hPa NNW 16.6 km/h 29.6 km/h 48 % 0 mm
13:27 19.9 °C 8.6 °C 1003.3 hPa NW 16.9 km/h 24.1 km/h 48 % 0 mm
13:32 19.9 °C 8.6 °C 1003.3 hPa NNW 19 km/h 24.1 km/h 48 % 0 mm
13:36 20.2 °C 8.5 °C 1003.3 hPa North 20.4 km/h 33.3 km/h 47 % 0 mm
13:41 20.2 °C 8.6 °C 1002.9 hPa North 10.6 km/h 18.5 km/h 47 % 0 mm
13:46 20.3 °C 8.3 °C 1002.9 hPa NNW 15.8 km/h 24.1 km/h 46 % 0 mm
13:51 20.5 °C 8.5 °C 1002.6 hPa North 13.7 km/h 20.4 km/h 46 % 0 mm
13:55 20.7 °C 8.3 °C 1002.6 hPa North 21.7 km/h 31.5 km/h 45 % 0 mm
13:56 20.7 °C 8 °C 1002.6 hPa NW 20.4 km/h 35.2 km/h 44 % 0 mm
14:01 20.5 °C 8.2 °C 1002.6 hPa NW 20.9 km/h 31.5 km/h 45 % 0 mm
14:05 20.6 °C 7.9 °C 1002.3 hPa NNW 16.9 km/h 25.9 km/h 44 % 0 mm
14:08 20.6 °C 8.3 °C 1002.3 hPa North 14.8 km/h 25.9 km/h 45 % 0 mm
14:09 20.6 °C 8.6 °C 1002.3 hPa NW 14.3 km/h 27.8 km/h 46 % 0 mm
14:11 20.7 °C 8.3 °C 1002.3 hPa North 10.8 km/h 22.2 km/h 45 % 0 mm
14:15 20.9 °C 8.5 °C 1001.9 hPa NE 18 km/h 27.4 km/h 45 % 0 mm
14:20 20.7 °C 8.3 °C 1001.9 hPa North 15.3 km/h 24.1 km/h 45 % 0 mm
14:25 21.2 °C 8.4 °C 1001.6 hPa North 20.8 km/h 31.5 km/h 44 % 0 mm
14:27 21.1 °C 8.3 °C 1001.6 hPa NW 23 km/h 29.6 km/h 44 % 0 mm
14:32 21 °C 8.3 °C 1001.6 hPa NNW 14.8 km/h 22.2 km/h 44 % 0 mm
14:37 21.3 °C 8.5 °C 1001.6 hPa North 16.9 km/h 27.8 km/h 44 % 0 mm
14:42 21.2 °C 7.7 °C 1001.6 hPa NW 19.2 km/h 25.9 km/h 42 % 0 mm
14:47 20.9 °C 7.9 °C 1001.2 hPa NNW 19.2 km/h 27.8 km/h 43 % 0 mm
14:52 20.8 °C 8.1 °C 1001.2 hPa NW 13.4 km/h 20.4 km/h 44 % 0 mm
14:53 20.9 °C 8.2 °C 1001.2 hPa WNW 12.4 km/h 22.2 km/h 44 % 0 mm
14:57 21.1 °C 8.1 °C 1000.9 hPa NNW 15.6 km/h 27.8 km/h 43 % 0 mm
14:59 21.2 °C 7.7 °C 1000.9 hPa North 12.2 km/h 18.5 km/h 42 % 0 mm
15:03 21.3 °C 7.8 °C 1000.9 hPa North 17.4 km/h 22.5 km/h 42 % 0 mm
15:08 21.2 °C 7.8 °C 1000.6 hPa North 15 km/h 16.7 km/h 42 % 0 mm
15:12 21.2 °C 7.7 °C 1000.6 hPa North 18 km/h 31.5 km/h 42 % 0 mm
15:16 21.2 °C 7.8 °C 1000.6 hPa NW 16.7 km/h 16.7 km/h 42 % 0 mm
15:21 21.4 °C 7.6 °C 1000.6 hPa NW 21.6 km/h 31.5 km/h 41 % 0 mm
15:26 21.8 °C 7.6 °C 1000.6 hPa North 17.5 km/h 33.8 km/h 40 % 0 mm
15:31 21.8 °C 7.6 °C 1000.6 hPa North 17.7 km/h 33.8 km/h 40 % 0 mm
15:36 21.9 °C 7.3 °C 1000.2 hPa NNE 21.7 km/h 25.9 km/h 39 % 0 mm
15:41 21.9 °C 7.3 °C 1000.2 hPa NW 14.8 km/h 27.8 km/h 39 % 0 mm
15:46 21.8 °C 7.6 °C 1000.2 hPa North 12.6 km/h 25.9 km/h 40 % 0 mm
15:47 21.8 °C 7.6 °C 1000.2 hPa North 12.2 km/h 25.9 km/h 40 % 0 mm
15:52 22 °C 7 °C 999.9 hPa NW 21.4 km/h 35.2 km/h 38 % 0 mm
15:57 21.8 °C 7.3 °C 999.9 hPa NNW 28.5 km/h 48.1 km/h 39 % 0 mm
15:58 21.8 °C 7.2 °C 1000.2 hPa NW 33.6 km/h 48.1 km/h 39 % 0 mm
16:00 21.8 °C 7.2 °C 1000.2 hPa NNE 22.5 km/h 40.7 km/h 39 % 0 mm
16:01 21.7 °C 7.2 °C 1000.2 hPa North 22.4 km/h 35.2 km/h 39 % 0 mm
16:06 21.7 °C 7.5 °C 1000.2 hPa NNW 25.7 km/h 41.8 km/h 40 % 0 mm
16:07 21.7 °C 7.5 °C 1000.2 hPa NW 30.3 km/h 42.6 km/h 40 % 0 mm
16:12 21.8 °C 7.6 °C 1000.2 hPa NNW 18.8 km/h 38.9 km/h 40 % 0 mm
16:15 21.8 °C 7.3 °C 999.9 hPa NNW 15.3 km/h 27.8 km/h 39 % 0 mm
16:20 21.7 °C 6.8 °C 999.9 hPa North 24.5 km/h 31.5 km/h 38 % 0 mm
16:21 21.6 °C 6.7 °C 999.9 hPa NW 26.9 km/h 43.5 km/h 38 % 0 mm
16:26 21.7 °C 7.1 °C 999.9 hPa North 20.4 km/h 40.7 km/h 39 % 0 mm
16:31 21.8 °C 6.8 °C 999.9 hPa North 18.5 km/h 32.2 km/h 38 % 0 mm
16:35 21.8 °C 7.3 °C 999.9 hPa NNW 20.8 km/h 48.3 km/h 39 % 0 mm
16:40 21.7 °C 7.2 °C 999.9 hPa North 20.9 km/h 31.5 km/h 39 % 0 mm
16:45 21.7 °C 7.2 °C 999.9 hPa North 26.9 km/h 32.2 km/h 39 % 0 mm
16:50 21.6 °C 7.1 °C 999.9 hPa North 17.9 km/h 31.5 km/h 39 % 0 mm
16:55 21.6 °C 7.1 °C 999.9 hPa North 23.3 km/h 33.3 km/h 39 % 0 mm
17:00 21.5 °C 6.9 °C 999.9 hPa North 18.3 km/h 24.1 km/h 39 % 0 mm
17:05 21.5 °C 6.6 °C 999.9 hPa NW 22.9 km/h 29 km/h 38 % 0 mm
17:07 21.6 °C 6.6 °C 999.5 hPa NNW 23.8 km/h 42.6 km/h 38 % 0 mm
17:10 21.5 °C 6.6 °C 999.5 hPa NW 23.8 km/h 27.8 km/h 38 % 0 mm
17:11 21.5 °C 6.6 °C 999.5 hPa NNW 24.6 km/h 32.2 km/h 38 % 0 mm
17:16 21.4 °C 6.5 °C 999.5 hPa North 21.6 km/h 38.9 km/h 38 % 0 mm
17:21 21.4 °C 6.8 °C 999.5 hPa NNW 22 km/h 37 km/h 39 % 0 mm
17:26 21.3 °C 6.8 °C 999.2 hPa NNW 16.9 km/h 33.8 km/h 39 % 0 mm
17:31 21.1 °C 6.6 °C 999.5 hPa NNW 12.4 km/h 18.5 km/h 39 % 0 mm
17:36 21.1 °C 6.6 °C 999.2 hPa NNW 16.3 km/h 29.6 km/h 39 % 0 mm
17:40 21 °C 6.5 °C 999.2 hPa NNW 18.8 km/h 37 km/h 39 % 0 mm
17:45 21 °C 6.5 °C 999.2 hPa NNW 18.3 km/h 31.5 km/h 39 % 0 mm
17:50 20.9 °C 6.4 °C 999.2 hPa NW 17.1 km/h 32.2 km/h 39 % 0 mm
17:55 21 °C 6.5 °C 999.2 hPa North 22.4 km/h 37 km/h 39 % 0 mm
18:00 21 °C 6.1 °C 999.2 hPa North 21.7 km/h 29.6 km/h 38 % 0 mm
18:01 21 °C 6.1 °C 999.2 hPa NNW 22.5 km/h 33.8 km/h 38 % 0 mm
18:05 20.9 °C 6.1 °C 999.2 hPa NNW 13.7 km/h 24.1 km/h 38 % 0 mm
18:10 20.9 °C 6.1 °C 999.2 hPa NW 14.6 km/h 33.3 km/h 38 % 0 mm
18:11 20.9 °C 6.1 °C 999.2 hPa NW 12.2 km/h 24.1 km/h 38 % 0 mm
18:16 20.8 °C 6 °C 999.2 hPa North 11.9 km/h 16.7 km/h 38 % 0 mm
18:21 20.7 °C 5.9 °C 999.2 hPa NNW 11.1 km/h 16.1 km/h 38 % 0 mm
18:26 20.7 °C 5.8 °C 999.2 hPa NNW 12.7 km/h 18.5 km/h 38 % 0 mm
18:31 20.6 °C 5.8 °C 999.2 hPa North 18 km/h 31.5 km/h 38 % 0 mm
18:36 20.7 °C 5.8 °C 999.2 hPa North 12.6 km/h 20.9 km/h 38 % 0 mm
18:41 20.7 °C 5.8 °C 999.2 hPa North 13.2 km/h 19.3 km/h 38 % 0 mm
18:46 20.8 °C 5.6 °C 999.2 hPa NW 15 km/h 20.4 km/h 37 % 0 mm
18:51 20.9 °C 5.7 °C 999.2 hPa NNW 13.8 km/h 31.5 km/h 37 % 0 mm
18:56 20.4 °C 5.9 °C 999.2 hPa NW 21.4 km/h 38.9 km/h 39 % 0 mm
19:01 20.1 °C 5.7 °C 999.2 hPa NW 12.4 km/h 18.5 km/h 39 % 0 mm
19:06 19.9 °C 5.9 °C 998.9 hPa NW 9 km/h 14.8 km/h 40 % 0 mm
19:11 19.9 °C 5.6 °C 998.9 hPa NW 11.1 km/h 14.8 km/h 39 % 0 mm
19:16 19.9 °C 6.6 °C 999.2 hPa NW 14.8 km/h 20.9 km/h 42 % 0 mm
19:21 19.1 °C 8.1 °C 999.9 hPa WNW 34.4 km/h 46.7 km/h 49 % 0 mm
19:26 17.3 °C 8.4 °C 1000.2 hPa West 34.4 km/h 40.7 km/h 56 % 0 mm
19:31 16.6 °C 8.8 °C 1000.2 hPa WNW 34.8 km/h 44.4 km/h 60 % 0 mm
19:36 16.3 °C 8.7 °C 1000.2 hPa West 29.8 km/h 35.2 km/h 61 % 0 mm
19:41 16.1 °C 9.1 °C 1000.2 hPa WNW 27.7 km/h 33.3 km/h 63 % 0 mm
19:46 16 °C 8.9 °C 1000.2 hPa WNW 24.3 km/h 29.6 km/h 63 % 0 mm
19:51 16 °C 9.2 °C 1000.6 hPa WNW 24.5 km/h 31.5 km/h 64 % 0 mm
19:56 16 °C 9.2 °C 1000.9 hPa WNW 24.5 km/h 31.5 km/h 64 % 0 mm
20:01 16 °C 9.2 °C 1000.9 hPa West 30.7 km/h 50 km/h 64 % 0 mm
20:06 15.9 °C 9.1 °C 1001.2 hPa WNW 27 km/h 31.5 km/h 64 % 0 mm
20:11 15.8 °C 9.1 °C 1001.2 hPa WNW 21.7 km/h 35.2 km/h 64 % 0 mm
20:16 15.8 °C 8.7 °C 1001.2 hPa West 25.4 km/h 42.6 km/h 63 % 0 mm
20:21 15.7 °C 8.9 °C 1001.2 hPa WNW 26.9 km/h 38.9 km/h 64 % 0 mm
20:26 15.5 °C 8.7 °C 1001.2 hPa WNW 26.7 km/h 33.3 km/h 64 % 0 mm
20:31 15.3 °C 9 °C 1001.6 hPa WNW 21.1 km/h 31.5 km/h 66 % 0 mm
20:36 15.2 °C 9.1 °C 1001.6 hPa WNW 29.1 km/h 50 km/h 67 % 0 mm
20:41 15.1 °C 9.2 °C 1001.6 hPa NW 28.5 km/h 42.6 km/h 68 % 0 mm
20:46 14.9 °C 9.1 °C 1001.6 hPa West 31.4 km/h 46.3 km/h 68 % 0 mm
20:51 14.7 °C 9.1 °C 1001.9 hPa WNW 23.3 km/h 33.8 km/h 69 % 0 mm
20:56 14.3 °C 9.3 °C 1001.9 hPa NW 19.2 km/h 31.5 km/h 72 % 0 mm
21:01 13.7 °C 9.6 °C 1002.3 hPa NW 19.2 km/h 31.5 km/h 76 % 0.25 mm
21:06 13.3 °C 9.8 °C 1002.3 hPa North 21.4 km/h 29.6 km/h 79 % 0.25 mm
21:11 13 °C 9.6 °C 1001.9 hPa WNW 18.2 km/h 29.6 km/h 80 % 0.51 mm
21:16 12.7 °C 9.7 °C 1001.6 hPa WNW 29.5 km/h 38.9 km/h 82 % 0.51 mm
21:21 12.5 °C 9.7 °C 1001.2 hPa WNW 24.9 km/h 45.1 km/h 83 % 0.76 mm
21:26 12.4 °C 9.6 °C 1001.2 hPa North 24.9 km/h 27.8 km/h 83 % 1.02 mm
21:31 12.3 °C 9.5 °C 1001.6 hPa WNW 23.8 km/h 38.6 km/h 83 % 1.02 mm
21:36 12.2 °C 9.6 °C 1001.6 hPa NW 22.7 km/h 31.5 km/h 84 % 1.27 mm
21:41 12.1 °C 9.5 °C 1001.2 hPa WNW 21.4 km/h 27.8 km/h 84 % 1.78 mm
21:46 12 °C 9.6 °C 1000.9 hPa North 16.1 km/h 31.5 km/h 85 % 2.03 mm
21:51 12 °C 9.6 °C 1000.9 hPa NW 12.4 km/h 18.5 km/h 85 % 2.29 mm
21:52 12 °C 9.6 °C 1000.9 hPa NW 21.7 km/h 27.8 km/h 85 % 2.29 mm
21:53 12 °C 9.6 °C 1000.9 hPa North 20.6 km/h 25.9 km/h 85 % 2.29 mm
21:58 12.1 °C 9.6 °C 1000.9 hPa North 15.1 km/h 22.2 km/h 85 % 2.03 mm
22:03 12 °C 9.6 °C 1000.9 hPa NW 9 km/h 16.7 km/h 85 % 2.03 mm
22:08 11.9 °C 9.7 °C 1000.9 hPa NW 11.9 km/h 18.5 km/h 86 % 1.78 mm
22:13 11.9 °C 9.6 °C 1000.9 hPa North 11.3 km/h 18.5 km/h 86 % 1.52 mm
22:18 11.9 °C 9.6 °C 1000.9 hPa NNW 6.8 km/h 11.1 km/h 86 % 1.52 mm
22:23 11.9 °C 9.7 °C 1000.9 hPa WNW 16.4 km/h 27.8 km/h 86 % 1.27 mm
22:28 12.1 °C 9.8 °C 1000.9 hPa NW 13.8 km/h 20.4 km/h 86 % 1.27 mm
22:33 12.3 °C 9.8 °C 1000.9 hPa NNW 13.2 km/h 14.5 km/h 85 % 1.02 mm
22:38 12.4 °C 9.8 °C 1001.2 hPa WNW 16.9 km/h 25.9 km/h 84 % 0.76 mm
22:43 12.4 °C 9.8 °C 1001.2 hPa NNW 12.2 km/h 18.5 km/h 84 % 0.51 mm
22:48 12.5 °C 9.7 °C 1001.2 hPa NW 17.2 km/h 29.6 km/h 83 % 0.25 mm
22:53 12.6 °C 9.2 °C 1001.2 hPa WNW 18.5 km/h 31.5 km/h 80 % 0 mm
22:58 12.7 °C 9 °C 1001.2 hPa WNW 18.3 km/h 22.2 km/h 78 % 0 mm
23:01 12.7 °C 9 °C 1001.2 hPa WNW 18.2 km/h 22.2 km/h 78 % 0 mm
23:06 12.7 °C 9 °C 1001.6 hPa WNW 12.9 km/h 24.1 km/h 78 % 0 mm
23:11 12.7 °C 8.7 °C 1001.6 hPa WNW 15.9 km/h 27.8 km/h 77 % 0 mm
23:16 12.6 °C 8.5 °C 1001.2 hPa WNW 20.3 km/h 31.5 km/h 76 % 0 mm
23:21 12.6 °C 8.3 °C 1001.2 hPa WNW 16.3 km/h 22.2 km/h 75 % 0 mm
23:26 12.6 °C 8.5 °C 1001.2 hPa WNW 13.8 km/h 20.4 km/h 76 % 0 mm
23:31 12.4 °C 8.3 °C 1000.9 hPa NNW 15.1 km/h 24.1 km/h 76 % 0 mm
23:36 12.4 °C 8.1 °C 1000.9 hPa WNW 18.2 km/h 24.1 km/h 75 % 0 mm
23:41 12.4 °C 7.9 °C 1000.9 hPa NW 16.4 km/h 22.5 km/h 74 % 0 mm
23:46 12.4 °C 7.9 °C 1000.6 hPa West 22 km/h 27.8 km/h 74 % 0 mm
23:51 12.3 °C 7.9 °C 1000.9 hPa NW 14.6 km/h 19.3 km/h 75 % 0 mm
23:56 12.2 °C 7.9 °C 1000.9 hPa WNW 15.1 km/h 19.3 km/h 75 % 0 mm
Ararat Weather
Compliments of Weather Underground - 2.5 mb
Click here to send mail.


ABOUT

Live weather data from Ararat, Victoria, Australia, 3377
Data uploaded from Cumulus every 5 minutes to Weather Underground.
This site then downloads the raw data for formatting and display.
Metric and imperial data can be displayed. Graphs and historical data available.
Includes Sun and Moon times and rain image live from BOM.

Check out Ararat Weather on Facebook, Twitter and Google +

Help support ongoing costs by checking out the ads





Follow @AraratWeather